Time;durP1;ratioP1;P1;durP2;ratioP2;P2;SDS_P1;SDS_P2;PMS_P1;PMS_P2;Temp;Humidity;BMP_temperature;BMP_pressure;BME280_temperature;BME280_humidity;BME280_pressure;Samples;Min_cycle;Max_cycle;Signal;HPM_P1;HPM_P2
2020/01/11 00:05:59;;;;;;;1.14;1.14;;;;;;;19.62;42.35;102002.31;;;;-51
2020/01/11 00:11:51;;;;;;;1.25;1.10;;;;;;;19.58;42.32;102004.66;;;;-50
2020/01/11 00:14:51;;;;;;;1.15;1.10;;;;;;;19.56;42.29;102005.88;;;;-50
2020/01/11 00:17:51;;;;;;;1.25;1.17;;;;;;;19.55;42.31;102010.73;;;;-51
2020/01/11 00:20:51;;;;;;;1.10;1.10;;;;;;;19.53;42.26;102014.45;;;;-51
2020/01/11 00:23:51;;;;;;;1.04;1.03;;;;;;;19.53;42.34;102022.92;;;;-50
2020/01/11 00:26:51;;;;;;;1.30;1.20;;;;;;;19.52;42.28;102027.05;;;;-50
2020/01/11 00:29:51;;;;;;;1.19;1.19;;;;;;;19.50;42.31;102024.07;;;;-51
2020/01/11 00:32:51;;;;;;;1.21;1.11;;;;;;;19.49;42.22;102021.86;;;;-51
2020/01/11 00:35:51;;;;;;;1.20;1.10;;;;;;;19.46;42.29;102020.48;;;;-50
2020/01/11 00:38:51;;;;;;;1.29;1.19;;;;;;;19.46;42.30;102028.13;;;;-50
2020/01/11 00:41:51;;;;;;;1.18;1.11;;;;;;;19.44;42.23;102024.81;;;;-50
2020/01/11 00:44:51;;;;;;;1.42;1.20;;;;;;;19.42;42.29;102024.89;;;;-51
2020/01/11 00:47:51;;;;;;;1.15;1.10;;;;;;;19.42;42.25;102027.69;;;;-51
2020/01/11 00:50:51;;;;;;;1.10;1.10;;;;;;;19.40;42.23;102033.13;;;;-50
2020/01/11 00:53:51;;;;;;;1.27;1.17;;;;;;;19.38;42.25;102038.02;;;;-50
2020/01/11 00:56:51;;;;;;;1.10;1.09;;;;;;;19.38;42.29;102043.22;;;;-51
2020/01/11 00:59:51;;;;;;;1.21;1.15;;;;;;;19.36;42.26;102052.62;;;;-50
2020/01/11 01:02:51;;;;;;;1.11;1.10;;;;;;;19.34;42.30;102058.40;;;;-50
2020/01/11 01:05:51;;;;;;;1.30;1.20;;;;;;;19.33;42.24;102062.41;;;;-50
2020/01/11 01:08:51;;;;;;;1.30;1.20;;;;;;;19.33;42.26;102066.86;;;;-50
2020/01/11 01:11:51;;;;;;;1.04;1.04;;;;;;;19.31;42.26;102071.37;;;;-51
2020/01/11 01:14:51;;;;;;;1.27;1.14;;;;;;;19.30;42.25;102070.50;;;;-51
2020/01/11 01:17:51;;;;;;;1.23;1.13;;;;;;;19.29;42.27;102068.58;;;;-51
2020/01/11 01:20:51;;;;;;;1.20;1.10;;;;;;;19.26;42.27;102071.34;;;;-51
2020/01/11 01:23:51;;;;;;;1.21;1.11;;;;;;;19.26;42.27;102068.89;;;;-51
2020/01/11 01:26:51;;;;;;;1.10;1.10;;;;;;;19.24;42.27;102070.06;;;;-50
2020/01/11 01:29:51;;;;;;;1.30;1.20;;;;;;;19.24;42.28;102072.86;;;;-51
2020/01/11 01:32:51;;;;;;;1.03;1.03;;;;;;;19.22;42.28;102079.77;;;;-51
2020/01/11 01:35:51;;;;;;;1.10;1.10;;;;;;;19.22;42.31;102082.33;;;;-50
2020/01/11 01:38:51;;;;;;;1.06;1.06;;;;;;;19.20;42.31;102088.90;;;;-50
2020/01/11 01:41:51;;;;;;;1.22;1.12;;;;;;;19.19;42.34;102088.64;;;;-50
2020/01/11 01:44:51;;;;;;;1.28;1.18;;;;;;;19.18;42.32;102089.57;;;;-51
2020/01/11 01:47:51;;;;;;;1.11;1.09;;;;;;;19.16;42.31;102091.66;;;;-51
2020/01/11 01:50:51;;;;;;;1.20;1.10;;;;;;;19.16;42.36;102096.69;;;;-51
2020/01/11 01:53:51;;;;;;;1.65;1.20;;;;;;;19.14;42.38;102103.47;;;;-51
2020/01/11 01:56:51;;;;;;;1.09;1.09;;;;;;;19.13;42.40;102100.72;;;;-51
2020/01/11 01:59:51;;;;;;;1.42;1.22;;;;;;;19.12;42.31;102096.09;;;;-51
2020/01/11 02:02:51;;;;;;;1.05;1.03;;;;;;;19.12;42.37;102099.75;;;;-51
2020/01/11 02:05:51;;;;;;;1.00;1.00;;;;;;;19.09;42.37;102094.30;;;;-51
2020/01/11 02:08:51;;;;;;;1.10;1.10;;;;;;;19.08;42.39;102096.52;;;;-51
2020/01/11 02:11:51;;;;;;;1.11;1.10;;;;;;;19.08;42.37;102098.87;;;;-51
2020/01/11 02:14:51;;;;;;;1.17;1.11;;;;;;;19.07;42.41;102096.38;;;;-51
2020/01/11 02:17:51;;;;;;;1.16;1.10;;;;;;;19.05;42.38;102097.36;;;;-51
2020/01/11 02:20:51;;;;;;;1.30;1.20;;;;;;;19.04;42.40;102099.02;;;;-51
2020/01/11 02:23:51;;;;;;;1.25;1.15;;;;;;;19.04;42.39;102097.91;;;;-51
2020/01/11 02:26:51;;;;;;;1.10;1.10;;;;;;;19.03;42.37;102099.88;;;;-51
2020/01/11 02:29:51;;;;;;;1.23;1.14;;;;;;;19.02;42.40;102100.89;;;;-51
2020/01/11 02:40:51;;;;;;;1.19;1.10;;;;;;;18.99;42.39;102107.30;;;;-51
2020/01/11 02:43:51;;;;;;;1.28;1.18;;;;;;;18.98;42.43;102103.42;;;;-51
2020/01/11 02:46:51;;;;;;;1.19;1.11;;;;;;;18.97;42.42;102110.33;;;;-51
2020/01/11 02:49:51;;;;;;;1.22;1.14;;;;;;;18.95;42.45;102114.22;;;;-51
2020/01/11 02:52:51;;;;;;;1.00;1.00;;;;;;;18.95;42.37;102118.23;;;;-51
2020/01/11 02:55:50;;;;;;;1.20;1.10;;;;;;;18.94;42.43;102114.46;;;;-51
2020/01/11 02:58:50;;;;;;;1.00;1.00;;;;;;;18.94;42.41;102110.67;;;;-51
2020/01/11 03:01:51;;;;;;;1.27;1.17;;;;;;;18.92;42.43;102122.20;;;;-51
2020/01/11 03:04:51;;;;;;;1.10;1.10;;;;;;;18.91;42.45;102127.48;;;;-51
2020/01/11 03:07:51;;;;;;;1.47;1.31;;;;;;;18.88;42.48;102123.34;;;;-51
2020/01/11 03:10:51;;;;;;;1.04;1.04;;;;;;;18.89;42.41;102121.23;;;;-51
2020/01/11 03:13:51;;;;;;;1.10;1.10;;;;;;;18.89;42.43;102126.42;;;;-51
2020/01/11 03:16:51;;;;;;;1.13;1.10;;;;;;;18.87;42.45;102130.25;;;;-51
2020/01/11 03:19:51;;;;;;;1.10;1.10;;;;;;;18.87;42.46;102131.03;;;;-50
2020/01/11 03:22:51;;;;;;;1.27;1.18;;;;;;;18.86;42.46;102135.42;;;;-51
2020/01/11 03:25:51;;;;;;;1.16;1.14;;;;;;;18.86;42.44;102134.53;;;;-51
2020/01/11 03:28:51;;;;;;;1.21;1.11;;;;;;;18.84;42.40;102138.62;;;;-51
2020/01/11 03:31:51;;;;;;;1.05;1.04;;;;;;;18.84;42.46;102145.65;;;;-51
2020/01/11 03:34:51;;;;;;;1.08;1.08;;;;;;;18.84;42.45;102152.13;;;;-51
2020/01/11 03:37:51;;;;;;;1.34;1.24;;;;;;;18.82;42.40;102150.52;;;;-51
2020/01/11 03:40:51;;;;;;;1.27;1.17;;;;;;;18.81;42.43;102155.41;;;;-51
2020/01/11 03:43:51;;;;;;;1.18;1.13;;;;;;;18.80;42.45;102160.02;;;;-51
2020/01/11 03:46:51;;;;;;;1.10;1.10;;;;;;;18.80;42.45;102169.12;;;;-51
2020/01/11 03:49:51;;;;;;;1.11;1.10;;;;;;;18.78;42.46;102165.02;;;;-51
2020/01/11 03:52:51;;;;;;;1.10;1.10;;;;;;;18.78;42.47;102166.27;;;;-50
2020/01/11 03:55:51;;;;;;;1.30;1.20;;;;;;;18.77;42.45;102168.70;;;;-51
2020/01/11 03:58:51;;;;;;;1.30;1.20;;;;;;;18.76;42.48;102172.34;;;;-51
2020/01/11 04:01:51;;;;;;;1.05;1.05;;;;;;;18.76;42.44;102175.00;;;;-50
2020/01/11 04:04:51;;;;;;;1.29;1.19;;;;;;;18.75;42.44;102183.64;;;;-51
2020/01/11 04:07:51;;;;;;;1.10;1.10;;;;;;;18.74;42.46;102185.64;;;;-51
2020/01/11 04:10:51;;;;;;;1.25;1.17;;;;;;;18.73;42.45;102195.55;;;;-51
2020/01/11 04:13:53;;;;;;;1.23;1.13;;;;;;;18.73;42.50;102202.72;;;;-51
2020/01/11 04:16:51;;;;;;;1.07;1.04;;;;;;;18.71;42.49;102203.93;;;;-51
2020/01/11 04:19:50;;;;;;;1.33;1.20;;;;;;;18.71;42.45;102203.85;;;;-51
2020/01/11 04:22:51;;;;;;;1.07;1.07;;;;;;;18.71;42.49;102203.08;;;;-51
2020/01/11 04:25:51;;;;;;;1.04;1.04;;;;;;;18.69;42.46;102205.56;;;;-51
2020/01/11 04:28:51;;;;;;;1.09;1.09;;;;;;;18.69;42.43;102207.30;;;;-50
2020/01/11 04:31:51;;;;;;;1.16;1.00;;;;;;;18.68;42.44;102206.55;;;;-51
2020/01/11 04:34:51;;;;;;;1.10;1.10;;;;;;;18.67;42.44;102201.79;;;;-51
2020/01/11 04:37:51;;;;;;;1.21;1.12;;;;;;;18.66;42.46;102198.48;;;;-51
2020/01/11 04:40:50;;;;;;;1.13;1.10;;;;;;;18.67;42.40;102200.54;;;;-51
2020/01/11 04:43:51;;;;;;;1.25;1.15;;;;;;;18.66;42.46;102202.66;;;;-51
2020/01/11 04:46:50;;;;;;;1.05;1.04;;;;;;;18.67;42.48;102207.91;;;;-51
2020/01/11 04:49:51;;;;;;;1.29;1.20;;;;;;;18.69;42.49;102208.45;;;;-50
2020/01/11 04:52:51;;;;;;;1.29;1.19;;;;;;;18.69;42.41;102216.34;;;;-51
2020/01/11 04:55:50;;;;;;;1.10;1.10;;;;;;;18.70;42.43;102213.84;;;;-51
2020/01/11 04:58:51;;;;;;;1.13;1.10;;;;;;;18.73;42.41;102217.19;;;;-51
2020/01/11 05:02:36;;;;;;;1.11;1.11;;;;;;;18.74;42.46;102216.87;;;;-51
2020/01/11 05:06:11;;;;;;;1.11;1.11;;;;;;;18.77;42.52;102229.05;;;;-51
2020/01/11 05:08:51;;;;;;;1.28;1.18;;;;;;;18.82;42.43;102236.84;;;;-51
2020/01/11 05:11:51;;;;;;;1.21;1.13;;;;;;;18.86;42.41;102245.41;;;;-50
2020/01/11 05:14:50;;;;;;;1.10;1.10;;;;;;;18.90;42.44;102246.83;;;;-50
2020/01/11 05:17:51;;;;;;;1.26;1.17;;;;;;;18.94;42.47;102245.00;;;;-50
2020/01/11 05:20:50;;;;;;;1.08;1.08;;;;;;;18.99;42.46;102245.83;;;;-51
2020/01/11 05:23:50;;;;;;;1.16;1.10;;;;;;;19.02;42.47;102255.59;;;;-50
2020/01/11 05:26:51;;;;;;;1.00;1.00;;;;;;;19.05;42.46;102255.45;;;;-51
2020/01/11 05:29:51;;;;;;;1.07;1.07;;;;;;;19.09;42.42;102256.97;;;;-50
2020/01/11 05:32:51;;;;;;;1.00;1.00;;;;;;;19.13;42.48;102254.07;;;;-51
2020/01/11 05:35:51;;;;;;;1.20;1.10;;;;;;;19.18;42.46;102259.80;;;;-50
2020/01/11 05:38:51;;;;;;;1.23;1.13;;;;;;;19.21;42.49;102259.32;;;;-51
2020/01/11 05:41:51;;;;;;;1.05;1.05;;;;;;;19.22;42.45;102262.39;;;;-50
2020/01/11 05:44:51;;;;;;;1.17;1.09;;;;;;;19.26;42.42;102265.83;;;;-50
2020/01/11 05:47:51;;;;;;;1.30;1.20;;;;;;;19.29;42.45;102261.23;;;;-50
2020/01/11 05:50:51;;;;;;;1.88;1.00;;;;;;;19.32;42.42;102267.48;;;;-50
2020/01/11 05:53:51;;;;;;;1.20;1.15;;;;;;;19.36;42.43;102270.93;;;;-50
2020/01/11 05:56:51;;;;;;;1.29;1.19;;;;;;;19.39;42.44;102273.78;;;;-51
2020/01/11 05:59:51;;;;;;;1.29;1.17;;;;;;;19.45;42.36;102274.89;;;;-50
2020/01/11 06:02:51;;;;;;;1.51;1.21;;;;;;;19.47;42.39;102274.59;;;;-50
2020/01/11 06:05:51;;;;;;;1.36;1.20;;;;;;;19.49;42.35;102277.89;;;;-50
2020/01/11 06:08:51;;;;;;;1.32;1.22;;;;;;;19.50;42.34;102277.13;;;;-50
2020/01/11 06:11:51;;;;;;;1.11;1.11;;;;;;;19.54;42.29;102275.72;;;;-51
2020/01/11 06:14:51;;;;;;;1.29;1.19;;;;;;;19.56;42.26;102283.81;;;;-51
2020/01/11 06:17:51;;;;;;;1.25;1.15;;;;;;;19.58;42.26;102286.73;;;;-51
2020/01/11 06:20:51;;;;;;;1.20;1.10;;;;;;;19.60;42.33;102286.29;;;;-50
2020/01/11 06:23:50;;;;;;;1.43;1.19;;;;;;;19.62;42.27;102288.93;;;;-51
2020/01/11 06:26:50;;;;;;;1.24;1.10;;;;;;;19.65;42.20;102286.15;;;;-51
2020/01/11 06:29:51;;;;;;;1.20;1.14;;;;;;;19.66;42.25;102289.24;;;;-51
2020/01/11 06:32:51;;;;;;;1.29;1.19;;;;;;;19.68;42.21;102285.53;;;;-50
2020/01/11 06:35:51;;;;;;;1.33;1.15;;;;;;;19.69;42.12;102286.55;;;;-50
2020/01/11 06:38:50;;;;;;;1.11;1.10;;;;;;;19.70;42.10;102289.14;;;;-51
2020/01/11 06:41:50;;;;;;;1.10;1.10;;;;;;;19.72;42.06;102292.75;;;;-50
2020/01/11 06:44:51;;;;;;;1.49;1.21;;;;;;;19.72;42.04;102295.38;;;;-50
2020/01/11 06:47:51;;;;;;;1.36;1.20;;;;;;;19.73;42.06;102298.75;;;;-51
2020/01/11 06:50:51;;;;;;;1.29;1.20;;;;;;;19.75;42.02;102299.64;;;;-51
2020/01/11 06:53:51;;;;;;;1.47;1.31;;;;;;;19.77;42.05;102293.58;;;;-47
2020/01/11 06:56:51;;;;;;;2.65;1.25;;;;;;;19.76;41.82;102294.66;;;;-51
2020/01/11 06:59:50;;;;;;;1.90;1.41;;;;;;;19.76;41.73;102298.37;;;;-47
2020/01/11 07:02:50;;;;;;;1.62;1.52;;;;;;;19.77;41.26;102296.41;;;;-46
2020/01/11 07:05:50;;;;;;;1.97;1.47;;;;;;;19.79;41.48;102296.22;;;;-48
2020/01/11 07:08:51;;;;;;;1.84;1.48;;;;;;;19.81;41.26;102288.98;;;;-42
2020/01/11 07:11:55;;;;;;;1.79;1.41;;;;;;;19.85;41.43;102283.87;;;;-48
2020/01/11 07:14:51;;;;;;;3.53;1.57;;;;;;;19.86;41.58;102284.39;;;;-48
2020/01/11 07:17:51;;;;;;;2.46;1.33;;;;;;;19.88;41.66;102280.96;;;;-48
2020/01/11 07:20:50;;;;;;;1.43;1.33;;;;;;;19.87;41.46;102276.03;;;;-48
2020/01/11 07:23:51;;;;;;;1.40;1.30;;;;;;;19.91;41.63;102275.59;;;;-48
2020/01/11 07:26:51;;;;;;;1.47;1.30;;;;;;;19.93;41.48;102283.28;;;;-48
2020/01/11 07:29:51;;;;;;;1.40;1.30;;;;;;;19.97;41.49;102283.80;;;;-48
2020/01/11 07:32:51;;;;;;;1.36;1.26;;;;;;;19.96;41.51;102282.88;;;;-48
2020/01/11 07:35:51;;;;;;;2.69;1.32;;;;;;;19.99;41.54;102281.79;;;;-48
2020/01/11 07:38:51;;;;;;;2.02;1.60;;;;;;;19.97;40.82;102278.75;;;;-48
2020/01/11 07:41:50;;;;;;;2.23;1.39;;;;;;;19.98;41.10;102279.17;;;;-48
2020/01/11 07:44:50;;;;;;;2.43;1.50;;;;;;;20.01;41.29;102281.37;;;;-48
2020/01/11 07:47:51;;;;;;;1.47;1.37;;;;;;;20.01;41.33;102278.08;;;;-48
2020/01/11 07:50:51;;;;;;;1.51;1.41;;;;;;;20.02;41.36;102276.24;;;;-48
2020/01/11 07:53:51;;;;;;;1.50;1.40;;;;;;;20.03;41.37;102276.26;;;;-48
2020/01/11 07:56:51;;;;;;;1.64;1.40;;;;;;;20.05;41.38;102277.73;;;;-48
2020/01/11 07:59:50;;;;;;;2.09;1.20;;;;;;;20.07;41.37;102291.64;;;;-48
2020/01/11 08:02:50;;;;;;;1.99;1.39;;;;;;;20.09;41.35;102285.46;;;;-48
2020/01/11 08:05:51;;;;;;;1.44;1.31;;;;;;;20.12;41.44;102281.70;;;;-48
2020/01/11 08:08:51;;;;;;;1.40;1.30;;;;;;;20.12;41.41;102278.46;;;;-48
2020/01/11 08:11:51;;;;;;;1.69;1.43;;;;;;;20.15;41.30;102285.95;;;;-48
2020/01/11 08:14:51;;;;;;;1.40;1.30;;;;;;;20.17;41.39;102294.05;;;;-48
2020/01/11 08:17:51;;;;;;;1.43;1.33;;;;;;;20.18;41.28;102298.81;;;;-48
2020/01/11 08:20:50;;;;;;;2.01;1.30;;;;;;;20.18;41.30;102302.39;;;;-48
2020/01/11 08:23:50;;;;;;;1.51;1.40;;;;;;;20.19;41.32;102307.20;;;;-48
2020/01/11 08:32:06;;;;;;;1.61;1.40;;;;;;;20.20;41.38;102314.45;;;;-48
2020/01/11 08:35:03;;;;;;;1.84;1.44;;;;;;;20.21;41.31;102312.55;;;;-48
2020/01/11 08:38:04;;;;;;;1.55;1.34;;;;;;;20.22;41.32;102312.19;;;;-48
2020/01/11 08:40:54;;;;;;;1.75;1.43;;;;;;;20.22;41.36;102310.01;;;;-48
2020/01/11 08:43:51;;;;;;;1.53;1.40;;;;;;;20.22;41.32;102315.04;;;;-49
2020/01/11 08:46:51;;;;;;;1.85;1.41;;;;;;;20.22;41.35;102328.23;;;;-48
2020/01/11 08:49:51;;;;;;;1.34;1.24;;;;;;;20.23;41.31;102324.95;;;;-48
2020/01/11 08:52:51;;;;;;;1.39;1.29;;;;;;;20.22;41.27;102326.34;;;;-48
2020/01/11 08:55:51;;;;;;;1.59;1.49;;;;;;;20.23;41.32;102327.28;;;;-48
2020/01/11 08:58:51;;;;;;;1.53;1.43;;;;;;;20.24;41.24;102329.16;;;;-48
2020/01/11 09:01:51;;;;;;;1.40;1.30;;;;;;;20.24;41.30;102333.19;;;;-48
2020/01/11 09:04:51;;;;;;;1.38;1.28;;;;;;;20.25;41.23;102336.61;;;;-48
2020/01/11 09:07:51;;;;;;;1.39;1.29;;;;;;;20.26;41.27;102336.36;;;;-48
2020/01/11 09:10:51;;;;;;;1.47;1.36;;;;;;;20.27;41.21;102338.66;;;;-48
2020/01/11 09:13:51;;;;;;;1.43;1.30;;;;;;;20.27;41.24;102344.76;;;;-48
2020/01/11 09:16:51;;;;;;;1.43;1.20;;;;;;;20.28;41.22;102356.46;;;;-48
2020/01/11 09:19:50;;;;;;;1.30;1.20;;;;;;;20.28;41.26;102361.78;;;;-48
2020/01/11 09:22:50;;;;;;;1.36;1.26;;;;;;;20.30;41.28;102358.63;;;;-48
2020/01/11 09:25:51;;;;;;;1.77;1.59;;;;;;;20.31;41.19;102362.61;;;;-48
2020/01/11 09:28:51;;;;;;;1.42;1.32;;;;;;;20.33;41.17;102376.40;;;;-48
2020/01/11 09:31:51;;;;;;;1.50;1.40;;;;;;;20.33;41.23;102385.34;;;;-48
2020/01/11 09:34:51;;;;;;;1.36;1.26;;;;;;;20.33;41.17;102386.64;;;;-48
2020/01/11 09:37:50;;;;;;;1.47;1.37;;;;;;;20.34;41.13;102388.72;;;;-47
2020/01/11 09:40:50;;;;;;;1.51;1.41;;;;;;;20.35;41.18;102392.26;;;;-48
2020/01/11 09:43:50;;;;;;;1.53;1.42;;;;;;;20.35;41.17;102393.16;;;;-48
2020/01/11 09:46:51;;;;;;;1.40;1.30;;;;;;;20.36;41.16;102401.23;;;;-48
2020/01/11 09:49:50;;;;;;;1.33;1.23;;;;;;;20.37;41.19;102403.83;;;;-48
2020/01/11 09:52:51;;;;;;;1.41;1.31;;;;;;;20.37;41.14;102399.95;;;;-48
2020/01/11 09:55:51;;;;;;;1.39;1.29;;;;;;;20.37;41.22;102392.81;;;;-48
2020/01/11 09:58:51;;;;;;;1.47;1.36;;;;;;;20.40;41.17;102390.41;;;;-48
2020/01/11 10:01:50;;;;;;;3.54;1.66;;;;;;;20.44;41.24;102391.11;;;;-44
2020/01/11 10:04:51;;;;;;;2.23;1.60;;;;;;;20.48;41.56;102388.56;;;;-46
2020/01/11 10:07:50;;;;;;;2.05;1.60;;;;;;;20.55;42.50;102381.08;;;;-51
2020/01/11 10:10:50;;;;;;;3.23;1.59;;;;;;;20.57;41.96;102375.01;;;;-43
2020/01/11 10:13:50;;;;;;;3.71;1.61;;;;;;;20.60;42.00;102377.95;;;;-46
2020/01/11 10:16:51;;;;;;;2.07;1.39;;;;;;;20.63;42.30;102367.19;;;;-46
2020/01/11 10:19:50;;;;;;;2.31;1.43;;;;;;;20.67;42.45;102366.03;;;;-49
2020/01/11 10:22:50;;;;;;;2.28;1.63;;;;;;;20.67;42.09;102361.92;;;;-51
2020/01/11 10:25:50;;;;;;;1.63;1.53;;;;;;;20.69;42.37;102354.17;;;;-50
2020/01/11 10:31:50;;;;;;;2.65;1.57;;;;;;;20.72;41.80;102350.27;;;;-47
2020/01/11 10:34:51;;;;;;;2.79;1.50;;;;;;;20.71;41.68;102353.14;;;;-50
2020/01/11 10:37:50;;;;;;;2.47;1.42;;;;;;;20.67;41.41;102345.30;;;;-47
2020/01/11 10:40:51;;;;;;;1.74;1.33;;;;;;;20.66;41.47;102337.70;;;;-47
2020/01/11 10:43:51;;;;;;;1.60;1.49;;;;;;;20.65;41.41;102328.23;;;;-47
2020/01/11 10:46:50;;;;;;;2.92;1.47;;;;;;;20.67;41.43;102329.25;;;;-47
2020/01/11 10:49:51;;;;;;;1.93;1.40;;;;;;;20.64;41.33;102320.25;;;;-47
2020/01/11 10:52:51;;;;;;;1.75;1.40;;;;;;;20.64;41.35;102318.08;;;;-47
2020/01/11 10:55:51;;;;;;;1.52;1.39;;;;;;;20.65;41.28;102310.31;;;;-47
2020/01/11 10:58:50;;;;;;;2.32;1.45;;;;;;;20.66;41.29;102309.88;;;;-47
2020/01/11 11:01:50;;;;;;;1.85;1.53;;;;;;;20.65;41.31;102309.42;;;;-47
2020/01/11 11:04:50;;;;;;;1.86;1.54;;;;;;;20.65;41.25;102302.37;;;;-47
2020/01/11 11:07:51;;;;;;;2.03;1.40;;;;;;;20.65;41.24;102304.11;;;;-47
2020/01/11 11:10:51;;;;;;;1.54;1.39;;;;;;;20.67;41.22;102303.55;;;;-45
2020/01/11 11:13:51;;;;;;;2.55;1.50;;;;;;;20.72;41.35;102296.64;;;;-45
2020/01/11 11:16:51;;;;;;;3.84;1.56;;;;;;;20.75;41.49;102293.82;;;;-47
2020/01/11 11:19:51;;;;;;;2.95;1.69;;;;;;;20.79;41.64;102288.44;;;;-43
2020/01/11 11:22:51;;;;;;;1.95;1.60;;;;;;;20.82;41.66;102278.10;;;;-46
2020/01/11 11:25:51;;;;;;;2.50;1.69;;;;;;;20.79;41.26;102274.23;;;;-46
2020/01/11 11:31:58;;;;;;;2.74;1.48;;;;;;;20.78;41.24;102261.50;;;;-46
2020/01/11 11:34:51;;;;;;;1.85;1.60;;;;;;;20.78;41.18;102263.52;;;;-46
2020/01/11 11:37:51;;;;;;;2.43;1.51;;;;;;;20.77;41.24;102257.91;;;;-46
2020/01/11 11:40:51;;;;;;;1.83;1.59;;;;;;;20.77;41.19;102257.41;;;;-46
2020/01/11 11:43:51;;;;;;;2.82;1.63;;;;;;;20.78;41.17;102256.45;;;;-46
2020/01/11 11:46:51;;;;;;;2.73;1.56;;;;;;;20.77;41.13;102253.66;;;;-46
2020/01/11 11:49:50;;;;;;;1.61;1.50;;;;;;;20.78;41.16;102249.98;;;;-46
2020/01/11 11:52:51;;;;;;;3.19;1.67;;;;;;;20.76;40.87;102247.08;;;;-46
2020/01/11 11:55:51;;;;;;;5.65;2.96;;;;;;;20.69;39.43;102244.78;;;;-46
2020/01/11 11:58:50;;;;;;;4.01;2.49;;;;;;;20.67;40.13;102244.28;;;;-46
2020/01/11 12:01:52;;;;;;;5.91;2.63;;;;;;;20.67;40.21;102240.55;;;;-46
2020/01/11 12:04:50;;;;;;;3.47;2.32;;;;;;;20.69;40.40;102242.20;;;;-46
2020/01/11 12:07:51;;;;;;;3.23;2.23;;;;;;;20.72;40.55;102239.21;;;;-46
2020/01/11 12:10:51;;;;;;;2.69;2.04;;;;;;;20.74;40.62;102235.82;;;;-47
2020/01/11 12:13:51;;;;;;;2.85;2.04;;;;;;;20.77;40.64;102232.72;;;;-47
2020/01/11 12:18:11;;;;;;;2.83;2.23;;;;;;;20.77;40.13;102234.06;;;;-46
2020/01/11 12:20:59;;;;;;;2.45;1.99;;;;;;;20.79;40.38;102233.53;;;;-46
2020/01/11 12:23:51;;;;;;;3.37;2.09;;;;;;;20.81;40.50;102233.76;;;;-46
2020/01/11 12:26:51;;;;;;;3.70;2.01;;;;;;;20.82;40.51;102235.00;;;;-46
2020/01/11 12:29:51;;;;;;;2.55;1.99;;;;;;;20.83;40.53;102237.08;;;;-46
2020/01/11 12:32:51;;;;;;;2.48;2.07;;;;;;;20.83;40.58;102227.91;;;;-46
2020/01/11 12:35:51;;;;;;;2.88;1.95;;;;;;;20.84;40.49;102226.84;;;;-46
2020/01/11 12:38:51;;;;;;;2.99;2.06;;;;;;;20.83;40.59;102225.20;;;;-54
2020/01/11 12:41:51;;;;;;;2.27;1.89;;;;;;;20.82;40.63;102221.62;;;;-54
2020/01/11 12:44:50;;;;;;;2.61;1.82;;;;;;;20.83;40.63;102221.69;;;;-51
2020/01/11 12:47:51;;;;;;;2.60;1.74;;;;;;;20.83;40.65;102227.68;;;;-51
2020/01/11 12:50:51;;;;;;;1.92;1.78;;;;;;;20.84;40.62;102217.72;;;;-51
2020/01/11 12:53:50;;;;;;;2.93;1.87;;;;;;;20.83;40.64;102215.02;;;;-51
2020/01/11 12:56:51;;;;;;;2.32;1.81;;;;;;;20.84;40.68;102214.31;;;;-51
2020/01/11 12:59:51;;;;;;;2.97;1.88;;;;;;;20.84;40.69;102210.45;;;;-51
2020/01/11 13:02:51;;;;;;;2.58;1.99;;;;;;;20.84;40.71;102209.66;;;;-51
2020/01/11 13:05:51;;;;;;;2.54;1.89;;;;;;;20.86;40.70;102209.84;;;;-51
2020/01/11 13:08:51;;;;;;;2.91;1.71;;;;;;;20.87;40.61;102203.48;;;;-51
2020/01/11 13:11:51;;;;;;;1.93;1.69;;;;;;;20.86;40.71;102198.43;;;;-51
2020/01/11 13:14:51;;;;;;;2.64;1.67;;;;;;;20.87;40.65;102198.39;;;;-51
2020/01/11 13:17:51;;;;;;;2.37;1.77;;;;;;;20.88;40.62;102192.80;;;;-54
2020/01/11 13:20:50;;;;;;;2.24;1.77;;;;;;;20.88;40.60;102192.42;;;;-54
2020/01/11 13:23:51;;;;;;;1.92;1.60;;;;;;;20.87;40.59;102190.66;;;;-54
2020/01/11 13:26:51;;;;;;;3.08;1.73;;;;;;;20.87;40.65;102188.54;;;;-54
2020/01/11 13:29:51;;;;;;;2.09;1.74;;;;;;;20.86;40.64;102183.92;;;;-54
2020/01/11 13:32:51;;;;;;;2.19;1.64;;;;;;;20.86;40.61;102181.75;;;;-55
2020/01/11 13:35:51;;;;;;;2.03;1.75;;;;;;;20.86;40.64;102179.45;;;;-54
2020/01/11 13:38:51;;;;;;;2.21;1.75;;;;;;;20.86;40.72;102175.31;;;;-54
2020/01/11 13:41:51;;;;;;;1.61;1.51;;;;;;;20.86;40.58;102170.99;;;;-54
2020/01/11 13:44:51;;;;;;;2.18;1.70;;;;;;;20.87;40.60;102171.18;;;;-55
2020/01/11 13:47:51;;;;;;;1.68;1.55;;;;;;;20.88;40.65;102166.27;;;;-55
2020/01/11 13:50:51;;;;;;;1.83;1.59;;;;;;;20.87;40.88;102160.77;;;;-52
2020/01/11 13:53:51;;;;;;;2.71;2.12;;;;;;;20.82;38.80;102162.45;;;;-51
2020/01/11 13:56:51;;;;;;;3.01;1.99;;;;;;;20.81;39.09;102161.38;;;;-48
2020/01/11 13:59:51;;;;;;;3.86;2.12;;;;;;;20.84;40.07;102156.81;;;;-49
2020/01/11 14:02:51;;;;;;;5.56;2.08;;;;;;;20.85;39.96;102154.25;;;;-49
2020/01/11 14:05:51;;;;;;;3.33;1.91;;;;;;;20.86;40.07;102155.60;;;;-49
2020/01/11 14:08:51;;;;;;;4.69;1.83;;;;;;;20.88;40.32;102141.35;;;;-52
2020/01/11 14:11:51;;;;;;;5.59;2.11;;;;;;;20.82;39.39;102141.23;;;;-54
2020/01/11 14:14:51;;;;;;;3.37;1.99;;;;;;;20.81;39.46;102139.15;;;;-56
2020/01/11 14:17:51;;;;;;;4.19;2.09;;;;;;;20.80;39.38;102139.34;;;;-57
2020/01/11 14:20:51;;;;;;;4.61;2.24;;;;;;;20.79;39.87;102141.78;;;;-54
2020/01/11 14:23:51;;;;;;;3.77;2.07;;;;;;;20.80;40.05;102146.39;;;;-60
2020/01/11 14:26:51;;;;;;;3.39;2.11;;;;;;;20.79;40.16;102146.94;;;;-57
2020/01/11 14:29:57;;;;;;;6.45;2.11;;;;;;;20.79;39.86;102143.02;;;;-51
2020/01/11 14:33:10;;;;;;;5.81;2.23;;;;;;;20.81;39.85;102140.55;;;;-56
2020/01/11 14:35:51;;;;;;;6.64;2.23;;;;;;;20.87;40.32;102145.20;;;;-46
2020/01/11 14:38:50;;;;;;;3.19;1.90;;;;;;;20.93;40.27;102140.78;;;;-46
2020/01/11 14:41:51;;;;;;;4.41;2.27;;;;;;;20.93;39.28;102138.98;;;;-52
2020/01/11 14:44:51;;;;;;;6.13;2.10;;;;;;;20.94;39.83;102137.98;;;;-51
2020/01/11 14:47:51;;;;;;;5.14;2.01;;;;;;;20.94;39.74;102136.66;;;;-57
2020/01/11 14:50:51;;;;;;;9.05;2.13;;;;;;;20.97;39.37;102134.38;;;;-55
2020/01/11 14:53:51;;;;;;;3.12;1.92;;;;;;;20.93;39.15;102131.72;;;;-57
2020/01/11 14:56:50;;;;;;;6.75;1.96;;;;;;;20.90;39.10;102133.31;;;;-57
2020/01/11 14:59:51;;;;;;;6.27;2.07;;;;;;;20.92;39.21;102131.20;;;;-58
2020/01/11 15:02:51;;;;;;;4.64;2.09;;;;;;;20.90;38.98;102124.29;;;;-57
2020/01/11 15:05:51;;;;;;;4.17;2.00;;;;;;;20.90;39.23;102123.62;;;;-57
2020/01/11 15:08:50;;;;;;;2.91;1.79;;;;;;;20.90;39.19;102118.36;;;;-56
2020/01/11 15:11:50;;;;;;;5.03;1.82;;;;;;;20.89;39.41;102115.23;;;;-57
2020/01/11 15:14:50;;;;;;;4.85;1.87;;;;;;;20.89;39.45;102118.47;;;;-57
2020/01/11 15:17:51;;;;;;;2.52;1.90;;;;;;;20.87;39.56;102120.35;;;;-57
2020/01/11 15:20:50;;;;;;;3.50;1.85;;;;;;;20.85;39.58;102118.70;;;;-56
2020/01/11 15:23:50;;;;;;;3.97;1.84;;;;;;;20.83;39.63;102117.45;;;;-57
2020/01/11 15:26:51;;;;;;;4.27;1.98;;;;;;;20.82;39.66;102120.80;;;;-57
2020/01/11 15:29:51;;;;;;;3.19;1.80;;;;;;;20.80;39.72;102121.34;;;;-57
2020/01/11 15:32:51;;;;;;;2.42;1.57;;;;;;;20.78;39.65;102130.17;;;;-56
2020/01/11 15:35:51;;;;;;;4.17;1.68;;;;;;;20.75;39.76;102130.72;;;;-57
2020/01/11 15:38:51;;;;;;;2.18;1.67;;;;;;;20.74;39.73;102128.92;;;;-56
2020/01/11 15:41:51;;;;;;;2.38;1.71;;;;;;;20.73;39.73;102130.68;;;;-56
2020/01/11 15:44:50;;;;;;;4.14;1.73;;;;;;;20.70;39.79;102131.94;;;;-56
2020/01/11 15:47:51;;;;;;;5.45;1.69;;;;;;;20.67;39.81;102124.75;;;;-51
2020/01/11 15:50:51;;;;;;;2.90;1.64;;;;;;;20.64;39.84;102120.47;;;;-58
2020/01/11 15:53:51;;;;;;;3.36;1.70;;;;;;;20.63;39.86;102128.67;;;;-58
2020/01/11 15:56:51;;;;;;;3.06;1.69;;;;;;;20.61;39.88;102129.72;;;;-57
2020/01/11 15:59:50;;;;;;;3.45;1.71;;;;;;;20.58;39.98;102128.22;;;;-48
2020/01/11 16:02:51;;;;;;;1.95;1.70;;;;;;;20.56;39.98;102129.60;;;;-49
2020/01/11 16:05:50;;;;;;;2.87;1.64;;;;;;;20.54;39.94;102124.49;;;;-51
2020/01/11 16:08:50;;;;;;;2.13;1.63;;;;;;;20.52;40.00;102117.37;;;;-49
2020/01/11 16:11:51;;;;;;;3.65;1.84;;;;;;;20.49;40.01;102118.67;;;;-50
2020/01/11 16:14:51;;;;;;;2.35;1.69;;;;;;;20.47;40.08;102117.53;;;;-49
2020/01/11 16:17:51;;;;;;;2.12;1.60;;;;;;;20.46;40.04;102113.49;;;;-49
2020/01/11 16:20:51;;;;;;;2.23;1.55;;;;;;;20.43;40.04;102110.21;;;;-49
2020/01/11 16:23:51;;;;;;;3.45;1.69;;;;;;;20.42;40.09;102112.88;;;;-49
2020/01/11 16:26:50;;;;;;;1.87;1.44;;;;;;;20.39;40.14;102112.95;;;;-50
2020/01/11 16:29:50;;;;;;;2.00;1.60;;;;;;;20.38;40.16;102109.25;;;;-49
2020/01/11 16:32:51;;;;;;;1.75;1.50;;;;;;;20.36;40.19;102101.06;;;;-49
2020/01/11 16:35:51;;;;;;;2.47;1.60;;;;;;;20.33;40.13;102097.28;;;;-49
2020/01/11 16:38:51;;;;;;;1.94;1.47;;;;;;;20.31;40.27;102092.19;;;;-49
2020/01/11 16:41:50;;;;;;;1.60;1.50;;;;;;;20.29;40.17;102094.09;;;;-49
2020/01/11 16:44:51;;;;;;;1.67;1.57;;;;;;;20.27;40.19;102094.86;;;;-50
2020/01/11 16:47:51;;;;;;;2.10;1.60;;;;;;;20.26;40.20;102090.55;;;;-49
2020/01/11 16:50:51;;;;;;;3.41;1.75;;;;;;;20.23;40.25;102091.22;;;;-49
2020/01/11 16:53:51;;;;;;;1.83;1.62;;;;;;;20.21;40.30;102089.31;;;;-49
2020/01/11 16:56:51;;;;;;;2.59;1.73;;;;;;;20.20;40.29;102093.78;;;;-49
2020/01/11 16:59:51;;;;;;;1.73;1.50;;;;;;;20.17;40.30;102098.16;;;;-49
2020/01/11 17:02:50;;;;;;;2.32;1.64;;;;;;;20.15;40.34;102096.06;;;;-51
2020/01/11 17:05:51;;;;;;;2.29;1.79;;;;;;;20.12;40.35;102091.50;;;;-51
2020/01/11 17:08:51;;;;;;;1.85;1.69;;;;;;;20.11;40.43;102093.88;;;;-51
2020/01/11 17:11:50;;;;;;;2.35;1.70;;;;;;;20.09;40.40;102091.30;;;;-51